Airfield :
LOGIN :

Register | Disclaimer

   EN    FR    IT 

 










Legend :    VFR   Marginal VFR   IFR   Intensive IFR   Very Intensive IFR
Visi :
Ceiling :
>= 8 km
>= 3000ft
5 to 8 km
1000 to 3000 ft
1500m to 5 km
500 to 1000 ft
800 to 1500m
200 to 500 ft
< 800m
< 200 ft
Symbols :   Thunderstorms  Fog  Heavy snow  Heavy precipitations  Wind > 20 kt
SIGMETs :     Misc.  Thunderstorms  Icing  Turbulence  Mountain Waves  Volcanic Ashes






- Airport Elevation : 74 ft
- IATA code : NDZ


ETMN - Cuxhaven Nordholz Sea AB

CURRENT METAR :
  • 141220Z 26022G32KT 9999 VCSH FEW015CB BKN025 BKN130 06/03 Q0983 RESHRA BLU

EXPIRED METARs :
  • 141213Z 26018G33KT 9999 VCSH FEW008 SCT015CB BKN030 06/03 Q0983 RESHRA BLU
  • 141202Z 27011G24KT 8000 -SHRA FEW008 BKN015CB BKN035 05/03 Q0983 RESHRA WHT
  • 141120Z 25012G24KT 8000 VCSH SCT008 BKN020 BKN150 06/03 Q0982 WHT
  • 141041Z 23014KT 9999 SCT008 BKN030 BKN140 05/03 Q0982 BLU
  • 141020Z 23014KT 9999 BKN010 BKN028 04/03 Q0981 GRN

Expired Forecast.



MET'MAP, your aeronautical weather chart ! - Copyright ORBIFLY December 2007 - Disclaimer

ORBIFLY MET'MAP TEAM :

Programming & Development : Alexandra Zaïnal
Concept & original design : Baudouin d'Aumeries
Assistance for programming : Marc-Olivier Méhu
Technical & hardware support : Manuel Goepfert

Contact : metmap@orbifly.com




SOURCES & CREDITS :

   NOAA